TimeCDT,TemperatureF,Dew PointF,Humidity,Sea Level PressureIn,VisibilityMPH,Wind Direction,Wind SpeedMPH,Gust SpeedMPH,PrecipitationIn,Events,Conditions,WindDirDegrees,DateUTC
12:15 AM,31.1,18.7,60,30.03,10.0,East,8.1,-,N/A,,Overcast,100,2013-03-17 05:15:00
12:35 AM,29.5,20.1,68,30.02,2.5,East,10.4,-,N/A,Snow,Light Snow,80,2013-03-17 05:35:00
12:55 AM,27.9,21.9,78,30.01,7.0,East,10.4,-,N/A,Snow,Light Snow,90,2013-03-17 05:55:00
1:15 AM,27.5,21.9,80,30.00,10.0,East,9.2,-,N/A,Snow,Light Snow,90,2013-03-17 06:15:00
1:35 AM,27.0,21.2,79,29.99,10.0,East,9.2,-,N/A,,Mostly Cloudy,100,2013-03-17 06:35:00
1:55 AM,27.5,21.2,77,29.97,10.0,ESE,11.5,-,N/A,Snow,Light Snow,120,2013-03-17 06:55:00
2:15 AM,28.0,21.0,75,29.97,10.0,ESE,9.2,-,N/A,,Overcast,120,2013-03-17 07:15:00
2:35 AM,27.9,21.2,76,29.96,10.0,ESE,8.1,-,N/A,,Overcast,120,2013-03-17 07:35:00
2:55 AM,27.5,21.2,77,29.96,10.0,SE,8.1,-,N/A,,Overcast,130,2013-03-17 07:55:00
3:15 AM,27.5,21.6,78,29.95,10.0,SE,10.4,-,N/A,,Overcast,130,2013-03-17 08:15:00
3:35 AM,27.5,21.9,80,29.94,10.0,SE,11.5,-,N/A,,Overcast,130,2013-03-17 08:35:00
3:55 AM,27.5,22.1,80,29.93,10.0,SE,8.1,-,N/A,,Overcast,140,2013-03-17 08:55:00
4:15 AM,27.5,21.7,79,29.92,10.0,SE,11.5,-,N/A,,Overcast,130,2013-03-17 09:15:00
4:55 AM,27.5,21.9,80,29.91,10.0,SE,11.5,-,N/A,,Overcast,140,2013-03-17 09:55:00
5:15 AM,27.5,21.9,80,29.91,10.0,SE,9.2,-,N/A,,Overcast,140,2013-03-17 10:15:00
5:35 AM,27.5,21.9,80,29.91,10.0,SE,9.2,-,N/A,,Overcast,140,2013-03-17 10:35:00
5:55 AM,27.5,21.7,79,29.91,10.0,SE,10.4,-,N/A,,Overcast,140,2013-03-17 10:55:00
6:15 AM,27.3,22.5,82,29.91,10.0,SE,9.2,-,N/A,,Overcast,140,2013-03-17 11:15:00
6:35 AM,27.3,22.8,83,29.90,7.0,SE,9.2,-,N/A,,Overcast,140,2013-03-17 11:35:00
6:55 AM,27.0,23.0,85,29.89,7.0,SE,9.2,-,N/A,,Overcast,140,2013-03-17 11:55:00
7:15 AM,27.3,23.5,86,29.88,10.0,SSE,15.0,18.4,N/A,,Overcast,150,2013-03-17 12:15:00
7:35 AM,27.1,24.1,88,29.87,5.0,SSE,10.4,-,N/A,,Overcast,150,2013-03-17 12:35:00
7:55 AM,27.0,24.3,90,29.87,5.0,SSE,12.7,17.3,N/A,,Overcast,150,2013-03-17 12:55:00
8:15 AM,27.1,24.3,89,29.86,4.0,SSE,12.7,-,N/A,,Overcast,160,2013-03-17 13:15:00
8:35 AM,27.1,24.4,90,29.85,3.0,SSE,16.1,-,N/A,,Overcast,150,2013-03-17 13:35:00
8:55 AM,27.3,24.8,90,29.85,2.0,SSE,12.7,-,N/A,,Overcast,160,2013-03-17 13:55:00
9:15 AM,27.5,25.2,91,29.84,2.5,SSE,12.7,-,N/A,,Overcast,160,2013-03-17 14:15:00
9:35 AM,28.0,25.7,91,29.83,2.5,SSE,17.3,20.7,N/A,,Overcast,160,2013-03-17 14:35:00
9:55 AM,28.4,25.9,90,29.81,2.0,SSE,16.1,19.6,N/A,,Overcast,150,2013-03-17 14:55:00
10:15 AM,28.4,26.1,91,29.80,2.5,SSE,17.3,23.0,N/A,,Overcast,150,2013-03-17 15:15:00
10:35 AM,29.3,26.6,90,29.80,3.0,SSE,17.3,20.7,N/A,,Overcast,150,2013-03-17 15:35:00
10:55 AM,29.8,27.3,90,29.79,2.0,SSE,18.4,24.2,N/A,,Overcast,150,2013-03-17 15:55:00
11:15 AM,29.8,27.3,90,29.78,2.5,SSE,18.4,25.3,N/A,,Overcast,160,2013-03-17 16:15:00
11:35 AM,30.4,27.7,90,29.76,3.0,South,15.0,23.0,N/A,,Overcast,170,2013-03-17 16:35:00
11:55 AM,30.9,28.0,89,29.76,2.5,SSE,18.4,23.0,N/A,,Overcast,160,2013-03-17 16:55:00
12:15 PM,30.9,28.0,89,29.74,2.5,SSE,20.7,25.3,N/A,,Overcast,160,2013-03-17 17:15:00
12:35 PM,31.5,28.2,88,29.73,5.0,South,18.4,25.3,N/A,,Overcast,170,2013-03-17 17:35:00
12:55 PM,32.0,28.0,85,29.71,10.0,SSE,21.9,29.9,N/A,,Overcast,160,2013-03-17 17:55:00
1:15 PM,31.8,27.7,85,29.69,7.0,South,24.2,29.9,N/A,,Overcast,170,2013-03-17 18:15:00
1:35 PM,32.0,28.4,87,29.68,7.0,South,21.9,31.1,N/A,,Overcast,170,2013-03-17 18:35:00
1:55 PM,33.1,29.1,85,29.66,10.0,South,23.0,32.2,N/A,,Overcast,170,2013-03-17 18:55:00
2:15 PM,34.5,28.8,79,29.65,10.0,South,26.5,35.7,N/A,,Overcast,180,2013-03-17 19:15:00
2:35 PM,34.9,29.1,79,29.66,10.0,South,18.4,32.2,N/A,,Overcast,190,2013-03-17 19:35:00
2:55 PM,35.1,29.3,80,29.65,10.0,South,21.9,27.6,N/A,,Overcast,180,2013-03-17 19:55:00
3:15 PM,35.2,29.5,80,29.65,10.0,South,20.7,31.1,N/A,,Overcast,190,2013-03-17 20:15:00
3:35 PM,35.2,30.0,81,29.60,5.0,South,23.0,28.8,N/A,Snow,Light Snow,170,2013-03-17 20:35:00
3:55 PM,35.4,30.2,81,29.59,10.0,South,20.7,29.9,N/A,,Overcast,170,2013-03-17 20:55:00
4:15 PM,35.8,31.1,83,29.56,10.0,SSE,23.0,29.9,N/A,Thunderstorm,Overcast,160,2013-03-17 21:15:00
4:35 PM,36.0,31.1,82,29.54,10.0,SSE,29.9,33.4,N/A,,Overcast,160,2013-03-17 21:35:00
4:55 PM,36.5,31.1,81,29.54,10.0,SSE,25.3,33.4,N/A,,Overcast,160,2013-03-17 21:55:00
5:15 PM,35.8,30.7,82,29.54,10.0,SSE,24.2,32.2,N/A,,Mostly Cloudy,160,2013-03-17 22:15:00
5:35 PM,35.6,30.7,82,29.54,10.0,South,24.2,31.1,N/A,,Scattered Clouds,170,2013-03-17 22:35:00
5:55 PM,35.6,30.7,82,29.54,10.0,South,25.3,32.2,N/A,,Scattered Clouds,170,2013-03-17 22:55:00
6:15 PM,36.3,31.3,82,29.53,10.0,South,27.6,34.5,N/A,,Scattered Clouds,170,2013-03-17 23:15:00
6:35 PM,37.6,31.3,78,29.55,10.0,South,26.5,32.2,N/A,,Clear,170,2013-03-17 23:35:00
6:55 PM,36.5,31.1,81,29.55,7.0,South,23.0,28.8,N/A,,Scattered Clouds,170,2013-03-17 23:55:00
7:15 PM,36.5,31.1,81,29.55,7.0,South,24.2,-,N/A,,Mostly Cloudy,170,2013-03-18 00:15:00
7:35 PM,36.1,31.1,82,29.55,7.0,South,19.6,27.6,N/A,,Overcast,170,2013-03-18 00:35:00
7:55 PM,36.5,31.1,81,29.55,7.0,South,20.7,27.6,N/A,,Scattered Clouds,170,2013-03-18 00:55:00
8:15 PM,36.5,31.1,81,29.56,10.0,South,19.6,25.3,N/A,,Scattered Clouds,190,2013-03-18 01:15:00
8:35 PM,36.5,31.1,81,29.56,10.0,South,18.4,-,N/A,,Scattered Clouds,190,2013-03-18 01:35:00
8:55 PM,36.5,31.8,83,29.55,10.0,South,16.1,20.7,N/A,,Clear,190,2013-03-18 01:55:00
9:15 PM,37.0,32.0,82,29.58,10.0,SSW,15.0,20.7,N/A,,Clear,200,2013-03-18 02:15:00
9:35 PM,39.6,32.0,74,29.62,10.0,WSW,10.4,-,N/A,,Scattered Clouds,250,2013-03-18 02:35:00
9:55 PM,41.9,32.4,69,29.65,10.0,NNW,28.8,35.7,N/A,,Overcast,340,2013-03-18 02:55:00
10:15 PM,38.5,30.4,73,29.68,10.0,NNW,24.2,33.4,N/A,,Overcast,330,2013-03-18 03:15:00
10:35 PM,36.0,27.5,71,29.69,10.0,NNW,25.3,32.2,N/A,,Overcast,330,2013-03-18 03:35:00
10:55 PM,34.7,26.4,72,29.71,10.0,NW,19.6,28.8,N/A,,Overcast,320,2013-03-18 03:55:00
11:15 PM,34.3,26.1,72,29.72,10.0,NW,19.6,28.8,N/A,,Mostly Cloudy,320,2013-03-18 04:15:00
11:35 PM,34.3,25.7,71,29.73,10.0,NW,19.6,-,N/A,,Overcast,310,2013-03-18 04:35:00
11:55 PM,34.7,24.6,67,29.73,10.0,NW,24.2,36.8,N/A,,Overcast,320,2013-03-18 04:55:00